sensor_id;sensor_type;location;lat;lon;timestamp;P1;durP1;ratioP1;P2;durP2;ratioP2
18042;SDS011;9146;48.074;11.968;2023-12-07T00:02:19;10.17;;;8.87;;
18042;SDS011;9146;48.074;11.968;2023-12-07T00:04:46;11.33;;;9.03;;
18042;SDS011;9146;48.074;11.968;2023-12-07T00:07:13;13.00;;;10.00;;
18042;SDS011;9146;48.074;11.968;2023-12-07T00:09:40;10.30;;;8.03;;
18042;SDS011;9146;48.074;11.968;2023-12-07T00:12:09;11.77;;;9.10;;
18042;SDS011;9146;48.074;11.968;2023-12-07T00:14:36;12.27;;;9.53;;
18042;SDS011;9146;48.074;11.968;2023-12-07T00:17:03;10.83;;;8.57;;
18042;SDS011;9146;48.074;11.968;2023-12-07T00:19:30;12.67;;;8.80;;
18042;SDS011;9146;48.074;11.968;2023-12-07T00:21:57;10.13;;;8.23;;
18042;SDS011;9146;48.074;11.968;2023-12-07T00:24:24;10.97;;;8.70;;
18042;SDS011;9146;48.074;11.968;2023-12-07T00:26:52;10.43;;;8.37;;
18042;SDS011;9146;48.074;11.968;2023-12-07T00:29:20;12.03;;;8.87;;
18042;SDS011;9146;48.074;11.968;2023-12-07T00:31:47;13.10;;;8.97;;
18042;SDS011;9146;48.074;11.968;2023-12-07T00:34:15;10.63;;;8.43;;
18042;SDS011;9146;48.074;11.968;2023-12-07T00:36:42;12.93;;;8.47;;
18042;SDS011;9146;48.074;11.968;2023-12-07T00:39:09;11.23;;;8.03;;
18042;SDS011;9146;48.074;11.968;2023-12-07T00:41:37;12.17;;;8.20;;
18042;SDS011;9146;48.074;11.968;2023-12-07T00:44:04;12.27;;;9.47;;
18042;SDS011;9146;48.074;11.968;2023-12-07T00:46:33;11.20;;;8.70;;
18042;SDS011;9146;48.074;11.968;2023-12-07T00:49:00;10.00;;;8.40;;
18042;SDS011;9146;48.074;11.968;2023-12-07T00:51:27;10.20;;;8.67;;
18042;SDS011;9146;48.074;11.968;2023-12-07T00:53:54;10.37;;;8.00;;
18042;SDS011;9146;48.074;11.968;2023-12-07T00:56:21;11.13;;;8.33;;
18042;SDS011;9146;48.074;11.968;2023-12-07T00:58:49;11.97;;;8.83;;
18042;SDS011;9146;48.074;11.968;2023-12-07T01:01:16;12.50;;;8.23;;
18042;SDS011;9146;48.074;11.968;2023-12-07T01:03:44;10.63;;;8.50;;
18042;SDS011;9146;48.074;11.968;2023-12-07T01:06:11;11.80;;;8.57;;
18042;SDS011;9146;48.074;11.968;2023-12-07T01:08:40;11.40;;;9.77;;
18042;SDS011;9146;48.074;11.968;2023-12-07T01:11:08;14.57;;;10.23;;
18042;SDS011;9146;48.074;11.968;2023-12-07T01:13:35;15.00;;;10.53;;
18042;SDS011;9146;48.074;11.968;2023-12-07T01:16:02;13.73;;;10.93;;
18042;SDS011;9146;48.074;11.968;2023-12-07T01:18:29;12.97;;;9.80;;
18042;SDS011;9146;48.074;11.968;2023-12-07T01:20:59;11.70;;;8.90;;
18042;SDS011;9146;48.074;11.968;2023-12-07T01:23:26;18.33;;;9.00;;
18042;SDS011;9146;48.074;11.968;2023-12-07T01:25:53;13.67;;;10.10;;
18042;SDS011;9146;48.074;11.968;2023-12-07T01:28:20;14.43;;;10.23;;
18042;SDS011;9146;48.074;11.968;2023-12-07T01:30:48;16.40;;;9.70;;
18042;SDS011;9146;48.074;11.968;2023-12-07T01:33:15;17.83;;;11.10;;
18042;SDS011;9146;48.074;11.968;2023-12-07T01:35:42;12.50;;;10.13;;
18042;SDS011;9146;48.074;11.968;2023-12-07T01:38:11;16.13;;;10.50;;
18042;SDS011;9146;48.074;11.968;2023-12-07T01:40:39;14.40;;;10.60;;
18042;SDS011;9146;48.074;11.968;2023-12-07T01:43:06;13.70;;;10.37;;
18042;SDS011;9146;48.074;11.968;2023-12-07T01:45:33;16.07;;;11.93;;
18042;SDS011;9146;48.074;11.968;2023-12-07T01:48:00;16.40;;;12.23;;
18042;SDS011;9146;48.074;11.968;2023-12-07T01:50:28;13.23;;;10.50;;
18042;SDS011;9146;48.074;11.968;2023-12-07T01:52:57;18.07;;;12.03;;
18042;SDS011;9146;48.074;11.968;2023-12-07T01:55:28;19.13;;;12.23;;
18042;SDS011;9146;48.074;11.968;2023-12-07T01:57:55;15.20;;;11.13;;
18042;SDS011;9146;48.074;11.968;2023-12-07T02:00:23;21.00;;;13.50;;
18042;SDS011;9146;48.074;11.968;2023-12-07T02:02:50;20.67;;;13.17;;
18042;SDS011;9146;48.074;11.968;2023-12-07T02:05:17;18.30;;;13.43;;
18042;SDS011;9146;48.074;11.968;2023-12-07T02:07:44;16.33;;;12.70;;
18042;SDS011;9146;48.074;11.968;2023-12-07T02:10:12;17.17;;;12.73;;
18042;SDS011;9146;48.074;11.968;2023-12-07T02:12:42;17.33;;;11.80;;
18042;SDS011;9146;48.074;11.968;2023-12-07T02:15:09;23.00;;;15.20;;
18042;SDS011;9146;48.074;11.968;2023-12-07T02:17:38;22.23;;;15.07;;
18042;SDS011;9146;48.074;11.968;2023-12-07T02:20:09;22.90;;;14.50;;
18042;SDS011;9146;48.074;11.968;2023-12-07T02:22:39;24.03;;;14.50;;
18042;SDS011;9146;48.074;11.968;2023-12-07T02:25:08;23.13;;;14.87;;
18042;SDS011;9146;48.074;11.968;2023-12-07T02:30:19;23.70;;;15.23;;
18042;SDS011;9146;48.074;11.968;2023-12-07T02:32:46;25.77;;;15.67;;
18042;SDS011;9146;48.074;11.968;2023-12-07T02:35:13;25.10;;;15.37;;
18042;SDS011;9146;48.074;11.968;2023-12-07T02:37:41;23.00;;;15.07;;
18042;SDS011;9146;48.074;11.968;2023-12-07T02:40:09;22.93;;;15.60;;
18042;SDS011;9146;48.074;11.968;2023-12-07T02:42:37;27.10;;;16.60;;
18042;SDS011;9146;48.074;11.968;2023-12-07T02:45:05;25.37;;;16.10;;
18042;SDS011;9146;48.074;11.968;2023-12-07T02:47:34;22.67;;;15.07;;
18042;SDS011;9146;48.074;11.968;2023-12-07T02:50:01;28.67;;;16.60;;
18042;SDS011;9146;48.074;11.968;2023-12-07T02:52:28;25.60;;;15.50;;
18042;SDS011;9146;48.074;11.968;2023-12-07T02:54:56;22.13;;;14.67;;
18042;SDS011;9146;48.074;11.968;2023-12-07T02:57:23;24.33;;;15.27;;
18042;SDS011;9146;48.074;11.968;2023-12-07T02:59:50;26.60;;;16.10;;
18042;SDS011;9146;48.074;11.968;2023-12-07T03:02:17;26.20;;;14.50;;
18042;SDS011;9146;48.074;11.968;2023-12-07T03:04:46;26.60;;;16.87;;
18042;SDS011;9146;48.074;11.968;2023-12-07T03:07:13;20.20;;;15.13;;
18042;SDS011;9146;48.074;11.968;2023-12-07T03:09:41;21.27;;;14.87;;
18042;SDS011;9146;48.074;11.968;2023-12-07T03:12:08;22.83;;;14.37;;
18042;SDS011;9146;48.074;11.968;2023-12-07T03:14:35;24.57;;;14.90;;
18042;SDS011;9146;48.074;11.968;2023-12-07T03:17:02;28.87;;;16.57;;
18042;SDS011;9146;48.074;11.968;2023-12-07T03:19:29;23.97;;;13.80;;
18042;SDS011;9146;48.074;11.968;2023-12-07T03:21:58;21.90;;;14.07;;
18042;SDS011;9146;48.074;11.968;2023-12-07T03:24:25;24.50;;;15.97;;
18042;SDS011;9146;48.074;11.968;2023-12-07T03:26:52;26.90;;;15.80;;
18042;SDS011;9146;48.074;11.968;2023-12-07T03:29:19;25.87;;;14.70;;
18042;SDS011;9146;48.074;11.968;2023-12-07T03:31:46;26.80;;;14.90;;
18042;SDS011;9146;48.074;11.968;2023-12-07T03:34:13;22.43;;;13.73;;
18042;SDS011;9146;48.074;11.968;2023-12-07T03:36:41;27.03;;;16.43;;
18042;SDS011;9146;48.074;11.968;2023-12-07T03:39:10;22.00;;;14.30;;
18042;SDS011;9146;48.074;11.968;2023-12-07T03:41:38;24.80;;;15.40;;
18042;SDS011;9146;48.074;11.968;2023-12-07T03:44:05;23.73;;;14.37;;
18042;SDS011;9146;48.074;11.968;2023-12-07T03:46:32;23.07;;;14.00;;
18042;SDS011;9146;48.074;11.968;2023-12-07T03:48:59;28.50;;;15.57;;
18042;SDS011;9146;48.074;11.968;2023-12-07T03:51:26;25.80;;;14.90;;
18042;SDS011;9146;48.074;11.968;2023-12-07T03:53:54;22.90;;;14.87;;
18042;SDS011;9146;48.074;11.968;2023-12-07T03:56:25;22.03;;;13.43;;
18042;SDS011;9146;48.074;11.968;2023-12-07T03:58:53;24.70;;;14.13;;
18042;SDS011;9146;48.074;11.968;2023-12-07T04:01:21;25.17;;;12.70;;
18042;SDS011;9146;48.074;11.968;2023-12-07T04:03:49;33.63;;;14.90;;
18042;SDS011;9146;48.074;11.968;2023-12-07T04:06:16;25.07;;;14.67;;
18042;SDS011;9146;48.074;11.968;2023-12-07T04:08:46;24.90;;;14.87;;
18042;SDS011;9146;48.074;11.968;2023-12-07T04:11:13;24.37;;;15.47;;
18042;SDS011;9146;48.074;11.968;2023-12-07T04:13:42;24.33;;;13.90;;
18042;SDS011;9146;48.074;11.968;2023-12-07T04:16:09;24.87;;;16.60;;
18042;SDS011;9146;48.074;11.968;2023-12-07T04:18:37;23.07;;;14.13;;
18042;SDS011;9146;48.074;11.968;2023-12-07T04:21:04;24.60;;;15.60;;
18042;SDS011;9146;48.074;11.968;2023-12-07T04:23:31;21.10;;;14.30;;
18042;SDS011;9146;48.074;11.968;2023-12-07T04:25:58;19.40;;;13.60;;
18042;SDS011;9146;48.074;11.968;2023-12-07T04:28:26;22.73;;;14.60;;
18042;SDS011;9146;48.074;11.968;2023-12-07T04:30:54;24.93;;;14.47;;
18042;SDS011;9146;48.074;11.968;2023-12-07T04:33:21;22.00;;;12.00;;
18042;SDS011;9146;48.074;11.968;2023-12-07T04:35:49;20.07;;;13.07;;
18042;SDS011;9146;48.074;11.968;2023-12-07T04:38:16;20.07;;;13.43;;
18042;SDS011;9146;48.074;11.968;2023-12-07T04:40:43;16.70;;;11.47;;
18042;SDS011;9146;48.074;11.968;2023-12-07T04:43:11;21.33;;;14.20;;
18042;SDS011;9146;48.074;11.968;2023-12-07T04:45:38;21.80;;;12.43;;
18042;SDS011;9146;48.074;11.968;2023-12-07T04:48:06;20.77;;;12.13;;
18042;SDS011;9146;48.074;11.968;2023-12-07T04:50:34;19.00;;;11.97;;
18042;SDS011;9146;48.074;11.968;2023-12-07T04:53:01;17.97;;;11.40;;
18042;SDS011;9146;48.074;11.968;2023-12-07T04:55:28;17.10;;;11.23;;
18042;SDS011;9146;48.074;11.968;2023-12-07T04:57:58;16.47;;;11.00;;
18042;SDS011;9146;48.074;11.968;2023-12-07T05:00:25;16.13;;;10.23;;
18042;SDS011;9146;48.074;11.968;2023-12-07T05:02:53;18.10;;;11.20;;
18042;SDS011;9146;48.074;11.968;2023-12-07T05:05:22;14.77;;;10.13;;
18042;SDS011;9146;48.074;11.968;2023-12-07T05:07:49;16.00;;;10.50;;
18042;SDS011;9146;48.074;11.968;2023-12-07T05:10:16;13.47;;;10.30;;
18042;SDS011;9146;48.074;11.968;2023-12-07T05:12:43;15.33;;;10.97;;
18042;SDS011;9146;48.074;11.968;2023-12-07T05:15:11;12.67;;;8.97;;
18042;SDS011;9146;48.074;11.968;2023-12-07T05:17:38;15.37;;;9.87;;
18042;SDS011;9146;48.074;11.968;2023-12-07T05:20:06;13.80;;;9.47;;
18042;SDS011;9146;48.074;11.968;2023-12-07T05:22:34;11.93;;;9.40;;
18042;SDS011;9146;48.074;11.968;2023-12-07T05:25:02;15.83;;;9.57;;
18042;SDS011;9146;48.074;11.968;2023-12-07T05:27:29;13.20;;;8.73;;
18042;SDS011;9146;48.074;11.968;2023-12-07T05:29:57;9.27;;;8.17;;
18042;SDS011;9146;48.074;11.968;2023-12-07T05:32:23;10.03;;;8.17;;
18042;SDS011;9146;48.074;11.968;2023-12-07T05:34:50;8.30;;;7.40;;
18042;SDS011;9146;48.074;11.968;2023-12-07T05:37:17;10.90;;;8.13;;
18042;SDS011;9146;48.074;11.968;2023-12-07T05:39:46;10.40;;;8.43;;
18042;SDS011;9146;48.074;11.968;2023-12-07T05:42:14;9.60;;;7.10;;
18042;SDS011;9146;48.074;11.968;2023-12-07T05:44:44;12.60;;;7.80;;
18042;SDS011;9146;48.074;11.968;2023-12-07T05:47:11;11.87;;;8.00;;
18042;SDS011;9146;48.074;11.968;2023-12-07T05:49:38;10.00;;;6.90;;
18042;SDS011;9146;48.074;11.968;2023-12-07T05:52:05;8.80;;;7.03;;
18042;SDS011;9146;48.074;11.968;2023-12-07T05:54:32;9.80;;;7.20;;
18042;SDS011;9146;48.074;11.968;2023-12-07T05:57:01;10.10;;;7.70;;
18042;SDS011;9146;48.074;11.968;2023-12-07T05:59:28;12.17;;;8.40;;
18042;SDS011;9146;48.074;11.968;2023-12-07T06:01:56;13.40;;;8.80;;
18042;SDS011;9146;48.074;11.968;2023-12-07T06:04:23;14.00;;;8.97;;
18042;SDS011;9146;48.074;11.968;2023-12-07T06:06:50;13.40;;;8.30;;
18042;SDS011;9146;48.074;11.968;2023-12-07T06:09:18;13.10;;;9.60;;
18042;SDS011;9146;48.074;11.968;2023-12-07T06:11:45;20.43;;;10.73;;
18042;SDS011;9146;48.074;11.968;2023-12-07T06:14:14;16.83;;;10.40;;
18042;SDS011;9146;48.074;11.968;2023-12-07T06:16:42;15.80;;;10.50;;
18042;SDS011;9146;48.074;11.968;2023-12-07T06:19:09;19.13;;;10.83;;
18042;SDS011;9146;48.074;11.968;2023-12-07T06:21:36;18.37;;;10.53;;
18042;SDS011;9146;48.074;11.968;2023-12-07T06:24:02;18.90;;;10.73;;
18042;SDS011;9146;48.074;11.968;2023-12-07T06:26:30;17.40;;;11.73;;
18042;SDS011;9146;48.074;11.968;2023-12-07T06:28:58;15.87;;;10.57;;
18042;SDS011;9146;48.074;11.968;2023-12-07T06:31:26;14.40;;;9.33;;
18042;SDS011;9146;48.074;11.968;2023-12-07T06:33:53;14.97;;;9.70;;
18042;SDS011;9146;48.074;11.968;2023-12-07T06:36:21;14.80;;;10.43;;
18042;SDS011;9146;48.074;11.968;2023-12-07T06:38:48;14.20;;;10.50;;
18042;SDS011;9146;48.074;11.968;2023-12-07T06:41:15;12.53;;;9.87;;
18042;SDS011;9146;48.074;11.968;2023-12-07T06:43:42;14.93;;;9.67;;
18042;SDS011;9146;48.074;11.968;2023-12-07T06:46:11;13.10;;;9.90;;
18042;SDS011;9146;48.074;11.968;2023-12-07T06:48:40;17.60;;;10.97;;
18042;SDS011;9146;48.074;11.968;2023-12-07T06:51:08;20.67;;;11.77;;
18042;SDS011;9146;48.074;11.968;2023-12-07T06:53:35;15.57;;;10.20;;
18042;SDS011;9146;48.074;11.968;2023-12-07T06:56:02;16.10;;;9.93;;
18042;SDS011;9146;48.074;11.968;2023-12-07T06:58:29;15.87;;;11.40;;
18042;SDS011;9146;48.074;11.968;2023-12-07T07:00:57;18.90;;;11.33;;
18042;SDS011;9146;48.074;11.968;2023-12-07T07:03:24;17.90;;;10.53;;
18042;SDS011;9146;48.074;11.968;2023-12-07T07:05:54;23.57;;;11.23;;
18042;SDS011;9146;48.074;11.968;2023-12-07T07:08:21;17.67;;;11.20;;
18042;SDS011;9146;48.074;11.968;2023-12-07T07:10:48;19.80;;;10.80;;
18042;SDS011;9146;48.074;11.968;2023-12-07T07:13:15;22.80;;;12.90;;
18042;SDS011;9146;48.074;11.968;2023-12-07T07:15:44;17.67;;;11.97;;
18042;SDS011;9146;48.074;11.968;2023-12-07T07:18:13;15.33;;;10.00;;
18042;SDS011;9146;48.074;11.968;2023-12-07T07:20:40;18.70;;;11.77;;
18042;SDS011;9146;48.074;11.968;2023-12-07T07:23:08;18.33;;;11.87;;
18042;SDS011;9146;48.074;11.968;2023-12-07T07:25:37;18.00;;;11.20;;
18042;SDS011;9146;48.074;11.968;2023-12-07T07:28:04;21.87;;;11.17;;
18042;SDS011;9146;48.074;11.968;2023-12-07T07:30:32;20.80;;;10.83;;
18042;SDS011;9146;48.074;11.968;2023-12-07T07:32:59;21.43;;;12.97;;
18042;SDS011;9146;48.074;11.968;2023-12-07T07:35:27;26.60;;;14.00;;
18042;SDS011;9146;48.074;11.968;2023-12-07T07:37:55;22.57;;;13.13;;
18042;SDS011;9146;48.074;11.968;2023-12-07T07:40:24;23.17;;;12.87;;
18042;SDS011;9146;48.074;11.968;2023-12-07T07:42:52;18.70;;;11.97;;
18042;SDS011;9146;48.074;11.968;2023-12-07T07:45:20;22.63;;;11.50;;
18042;SDS011;9146;48.074;11.968;2023-12-07T07:47:47;20.20;;;12.00;;
18042;SDS011;9146;48.074;11.968;2023-12-07T07:50:14;22.07;;;11.37;;
18042;SDS011;9146;48.074;11.968;2023-12-07T07:52:42;16.60;;;11.50;;
18042;SDS011;9146;48.074;11.968;2023-12-07T07:55:10;21.70;;;12.80;;
18042;SDS011;9146;48.074;11.968;2023-12-07T07:57:39;21.20;;;12.23;;
18042;SDS011;9146;48.074;11.968;2023-12-07T08:00:06;26.77;;;14.37;;
18042;SDS011;9146;48.074;11.968;2023-12-07T08:02:34;19.90;;;12.00;;
18042;SDS011;9146;48.074;11.968;2023-12-07T08:05:01;24.70;;;12.67;;
18042;SDS011;9146;48.074;11.968;2023-12-07T08:07:28;18.17;;;11.20;;
18042;SDS011;9146;48.074;11.968;2023-12-07T08:09:55;22.90;;;13.20;;
18042;SDS011;9146;48.074;11.968;2023-12-07T08:12:22;18.90;;;12.00;;
18042;SDS011;9146;48.074;11.968;2023-12-07T08:14:51;23.20;;;12.60;;
18042;SDS011;9146;48.074;11.968;2023-12-07T08:17:18;19.73;;;12.23;;
18042;SDS011;9146;48.074;11.968;2023-12-07T08:19:46;22.07;;;12.80;;
18042;SDS011;9146;48.074;11.968;2023-12-07T08:22:13;20.73;;;12.87;;
18042;SDS011;9146;48.074;11.968;2023-12-07T08:24:40;15.63;;;10.63;;
18042;SDS011;9146;48.074;11.968;2023-12-07T08:27:08;17.47;;;11.33;;
18042;SDS011;9146;48.074;11.968;2023-12-07T08:29:35;16.17;;;10.90;;
18042;SDS011;9146;48.074;11.968;2023-12-07T08:32:04;18.20;;;9.97;;
18042;SDS011;9146;48.074;11.968;2023-12-07T08:34:31;20.50;;;12.60;;
18042;SDS011;9146;48.074;11.968;2023-12-07T08:36:59;23.37;;;10.43;;
18042;SDS011;9146;48.074;11.968;2023-12-07T08:39:27;18.40;;;11.13;;
18042;SDS011;9146;48.074;11.968;2023-12-07T08:41:55;16.27;;;10.80;;
18042;SDS011;9146;48.074;11.968;2023-12-07T08:44:22;16.87;;;11.60;;
18042;SDS011;9146;48.074;11.968;2023-12-07T08:46:49;15.73;;;11.80;;
18042;SDS011;9146;48.074;11.968;2023-12-07T08:49:17;15.77;;;10.67;;
18042;SDS011;9146;48.074;11.968;2023-12-07T08:51:46;13.70;;;10.03;;
18042;SDS011;9146;48.074;11.968;2023-12-07T08:54:13;14.30;;;10.30;;
18042;SDS011;9146;48.074;11.968;2023-12-07T08:56:42;11.70;;;8.93;;
18042;SDS011;9146;48.074;11.968;2023-12-07T08:59:10;16.97;;;9.77;;
18042;SDS011;9146;48.074;11.968;2023-12-07T09:01:37;12.13;;;9.17;;
18042;SDS011;9146;48.074;11.968;2023-12-07T09:04:05;12.50;;;8.53;;
18042;SDS011;9146;48.074;11.968;2023-12-07T09:06:34;13.63;;;9.00;;
18042;SDS011;9146;48.074;11.968;2023-12-07T09:09:01;12.03;;;8.60;;
18042;SDS011;9146;48.074;11.968;2023-12-07T09:11:29;11.63;;;8.43;;
18042;SDS011;9146;48.074;11.968;2023-12-07T09:13:56;8.60;;;7.57;;
18042;SDS011;9146;48.074;11.968;2023-12-07T09:16:24;8.93;;;6.70;;
18042;SDS011;9146;48.074;11.968;2023-12-07T09:18:51;7.27;;;6.40;;
18042;SDS011;9146;48.074;11.968;2023-12-07T09:21:19;11.60;;;6.60;;
18042;SDS011;9146;48.074;11.968;2023-12-07T09:23:47;9.13;;;7.43;;
18042;SDS011;9146;48.074;11.968;2023-12-07T09:26:14;9.80;;;6.97;;
18042;SDS011;9146;48.074;11.968;2023-12-07T09:28:42;9.60;;;8.30;;
18042;SDS011;9146;48.074;11.968;2023-12-07T09:31:09;8.73;;;6.13;;
18042;SDS011;9146;48.074;11.968;2023-12-07T09:33:37;6.50;;;5.57;;
18042;SDS011;9146;48.074;11.968;2023-12-07T09:36:05;7.77;;;6.23;;
18042;SDS011;9146;48.074;11.968;2023-12-07T09:38:34;6.80;;;5.60;;
18042;SDS011;9146;48.074;11.968;2023-12-07T09:41:04;5.93;;;5.13;;
18042;SDS011;9146;48.074;11.968;2023-12-07T09:43:31;7.00;;;6.20;;
18042;SDS011;9146;48.074;11.968;2023-12-07T09:45:59;6.13;;;5.27;;
18042;SDS011;9146;48.074;11.968;2023-12-07T09:48:26;5.30;;;4.80;;
18042;SDS011;9146;48.074;11.968;2023-12-07T09:50:55;4.90;;;4.33;;
18042;SDS011;9146;48.074;11.968;2023-12-07T09:53:22;5.87;;;5.23;;
18042;SDS011;9146;48.074;11.968;2023-12-07T09:55:49;5.47;;;4.97;;
18042;SDS011;9146;48.074;11.968;2023-12-07T09:58:18;6.23;;;5.63;;
18042;SDS011;9146;48.074;11.968;2023-12-07T10:00:46;5.87;;;5.37;;
18042;SDS011;9146;48.074;11.968;2023-12-07T10:03:20;6.80;;;6.13;;
18042;SDS011;9146;48.074;11.968;2023-12-07T10:05:53;11.77;;;6.70;;
18042;SDS011;9146;48.074;11.968;2023-12-07T10:08:25;7.47;;;6.60;;
18042;SDS011;9146;48.074;11.968;2023-12-07T10:11:01;6.40;;;5.50;;
18042;SDS011;9146;48.074;11.968;2023-12-07T10:13:30;6.90;;;5.90;;
18042;SDS011;9146;48.074;11.968;2023-12-07T10:16:07;7.40;;;6.43;;
18042;SDS011;9146;48.074;11.968;2023-12-07T10:18:34;8.03;;;5.57;;
18042;SDS011;9146;48.074;11.968;2023-12-07T10:21:02;7.77;;;6.10;;
18042;SDS011;9146;48.074;11.968;2023-12-07T10:23:29;6.37;;;5.43;;
18042;SDS011;9146;48.074;11.968;2023-12-07T10:25:58;6.90;;;6.20;;
18042;SDS011;9146;48.074;11.968;2023-12-07T10:28:26;8.20;;;6.60;;
18042;SDS011;9146;48.074;11.968;2023-12-07T10:30:54;10.13;;;8.20;;
18042;SDS011;9146;48.074;11.968;2023-12-07T10:33:21;8.03;;;6.77;;
18042;SDS011;9146;48.074;11.968;2023-12-07T10:35:48;8.90;;;7.80;;
18042;SDS011;9146;48.074;11.968;2023-12-07T10:38:16;7.90;;;6.97;;
18042;SDS011;9146;48.074;11.968;2023-12-07T10:40:45;11.33;;;8.37;;
18042;SDS011;9146;48.074;11.968;2023-12-07T10:43:13;15.40;;;11.27;;
18042;SDS011;9146;48.074;11.968;2023-12-07T10:45:42;12.83;;;10.17;;
18042;SDS011;9146;48.074;11.968;2023-12-07T10:48:11;11.80;;;8.30;;
18042;SDS011;9146;48.074;11.968;2023-12-07T10:50:40;11.77;;;9.20;;
18042;SDS011;9146;48.074;11.968;2023-12-07T10:53:09;11.20;;;9.17;;
18042;SDS011;9146;48.074;11.968;2023-12-07T10:55:38;10.70;;;8.27;;
18042;SDS011;9146;48.074;11.968;2023-12-07T10:58:08;9.30;;;7.97;;
18042;SDS011;9146;48.074;11.968;2023-12-07T11:00:38;9.87;;;8.17;;
18042;SDS011;9146;48.074;11.968;2023-12-07T11:03:10;8.83;;;7.87;;
18042;SDS011;9146;48.074;11.968;2023-12-07T11:05:37;12.00;;;8.60;;
18042;SDS011;9146;48.074;11.968;2023-12-07T11:08:06;10.23;;;7.90;;
18042;SDS011;9146;48.074;11.968;2023-12-07T11:10:34;15.93;;;7.73;;
18042;SDS011;9146;48.074;11.968;2023-12-07T11:13:05;9.60;;;6.70;;
18042;SDS011;9146;48.074;11.968;2023-12-07T11:15:35;7.60;;;6.80;;
18042;SDS011;9146;48.074;11.968;2023-12-07T11:18:02;7.63;;;6.33;;
18042;SDS011;9146;48.074;11.968;2023-12-07T11:20:40;7.10;;;6.10;;
18042;SDS011;9146;48.074;11.968;2023-12-07T11:23:09;8.97;;;6.60;;
18042;SDS011;9146;48.074;11.968;2023-12-07T11:25:36;8.13;;;6.67;;
18042;SDS011;9146;48.074;11.968;2023-12-07T11:28:04;8.60;;;6.27;;
18042;SDS011;9146;48.074;11.968;2023-12-07T11:30:32;7.50;;;6.40;;
18042;SDS011;9146;48.074;11.968;2023-12-07T11:32:59;7.10;;;6.40;;
18042;SDS011;9146;48.074;11.968;2023-12-07T11:35:26;6.17;;;5.57;;
18042;SDS011;9146;48.074;11.968;2023-12-07T11:38:02;7.07;;;5.87;;
18042;SDS011;9146;48.074;11.968;2023-12-07T11:40:31;6.47;;;5.87;;
18042;SDS011;9146;48.074;11.968;2023-12-07T11:42:58;10.57;;;7.13;;
18042;SDS011;9146;48.074;11.968;2023-12-07T11:48:09;6.63;;;5.97;;
18042;SDS011;9146;48.074;11.968;2023-12-07T11:50:36;6.07;;;5.47;;
18042;SDS011;9146;48.074;11.968;2023-12-07T11:53:06;6.40;;;5.50;;
18042;SDS011;9146;48.074;11.968;2023-12-07T11:55:34;9.20;;;7.17;;
18042;SDS011;9146;48.074;11.968;2023-12-07T11:58:01;7.83;;;6.33;;
18042;SDS011;9146;48.074;11.968;2023-12-07T12:00:28;6.83;;;6.10;;
18042;SDS011;9146;48.074;11.968;2023-12-07T12:02:56;11.57;;;6.33;;
18042;SDS011;9146;48.074;11.968;2023-12-07T12:05:23;9.20;;;6.13;;
18042;SDS011;9146;48.074;11.968;2023-12-07T12:07:50;7.97;;;6.30;;
18042;SDS011;9146;48.074;11.968;2023-12-07T12:10:18;6.77;;;5.73;;
18042;SDS011;9146;48.074;11.968;2023-12-07T12:12:48;7.00;;;6.30;;
18042;SDS011;9146;48.074;11.968;2023-12-07T12:15:15;9.40;;;7.50;;
18042;SDS011;9146;48.074;11.968;2023-12-07T12:17:42;12.50;;;7.67;;
18042;SDS011;9146;48.074;11.968;2023-12-07T12:20:10;7.63;;;6.73;;
18042;SDS011;9146;48.074;11.968;2023-12-07T12:22:42;8.47;;;7.60;;
18042;SDS011;9146;48.074;11.968;2023-12-07T12:25:09;9.63;;;6.40;;
18042;SDS011;9146;48.074;11.968;2023-12-07T12:27:38;7.80;;;6.30;;
18042;SDS011;9146;48.074;11.968;2023-12-07T12:30:06;17.33;;;8.50;;
18042;SDS011;9146;48.074;11.968;2023-12-07T12:32:41;10.87;;;7.70;;
18042;SDS011;9146;48.074;11.968;2023-12-07T12:35:08;10.63;;;8.50;;
18042;SDS011;9146;48.074;11.968;2023-12-07T12:37:38;10.93;;;9.17;;
18042;SDS011;9146;48.074;11.968;2023-12-07T12:40:05;14.13;;;9.03;;
18042;SDS011;9146;48.074;11.968;2023-12-07T12:42:32;12.30;;;8.73;;
18042;SDS011;9146;48.074;11.968;2023-12-07T12:45:07;10.93;;;9.07;;
18042;SDS011;9146;48.074;11.968;2023-12-07T12:47:35;10.30;;;8.10;;
18042;SDS011;9146;48.074;11.968;2023-12-07T12:50:03;9.77;;;8.03;;
18042;SDS011;9146;48.074;11.968;2023-12-07T12:52:30;11.10;;;8.30;;
18042;SDS011;9146;48.074;11.968;2023-12-07T12:54:57;11.67;;;8.43;;
18042;SDS011;9146;48.074;11.968;2023-12-07T12:57:24;11.20;;;7.57;;
18042;SDS011;9146;48.074;11.968;2023-12-07T12:59:51;9.63;;;7.13;;
18042;SDS011;9146;48.074;11.968;2023-12-07T13:02:20;10.00;;;7.47;;
18042;SDS011;9146;48.074;11.968;2023-12-07T13:04:47;8.30;;;7.33;;
18042;SDS011;9146;48.074;11.968;2023-12-07T13:07:15;8.13;;;7.33;;
18042;SDS011;9146;48.074;11.968;2023-12-07T13:09:42;12.60;;;7.70;;
18042;SDS011;9146;48.074;11.968;2023-12-07T13:12:09;8.03;;;7.10;;
18042;SDS011;9146;48.074;11.968;2023-12-07T13:14:37;7.60;;;6.67;;
18042;SDS011;9146;48.074;11.968;2023-12-07T13:17:05;8.27;;;7.07;;
18042;SDS011;9146;48.074;11.968;2023-12-07T13:19:34;7.20;;;5.97;;
18042;SDS011;9146;48.074;11.968;2023-12-07T13:22:04;7.83;;;6.17;;
18042;SDS011;9146;48.074;11.968;2023-12-07T13:24:33;7.93;;;6.67;;
18042;SDS011;9146;48.074;11.968;2023-12-07T13:27:00;9.60;;;7.13;;
18042;SDS011;9146;48.074;11.968;2023-12-07T13:29:27;7.33;;;6.60;;
18042;SDS011;9146;48.074;11.968;2023-12-07T13:31:55;10.33;;;7.40;;
18042;SDS011;9146;48.074;11.968;2023-12-07T13:34:23;7.73;;;6.40;;
18042;SDS011;9146;48.074;11.968;2023-12-07T13:36:53;10.83;;;7.30;;
18042;SDS011;9146;48.074;11.968;2023-12-07T13:39:20;7.00;;;5.93;;
18042;SDS011;9146;48.074;11.968;2023-12-07T13:41:48;7.47;;;6.60;;
18042;SDS011;9146;48.074;11.968;2023-12-07T13:44:17;9.10;;;7.10;;
18042;SDS011;9146;48.074;11.968;2023-12-07T13:46:44;6.30;;;5.70;;
18042;SDS011;9146;48.074;11.968;2023-12-07T13:49:11;9.07;;;6.67;;
18042;SDS011;9146;48.074;11.968;2023-12-07T13:51:40;7.40;;;6.30;;
18042;SDS011;9146;48.074;11.968;2023-12-07T13:54:08;6.60;;;6.00;;
18042;SDS011;9146;48.074;11.968;2023-12-07T13:56:36;8.60;;;7.07;;
18042;SDS011;9146;48.074;11.968;2023-12-07T13:59:03;7.07;;;5.53;;
18042;SDS011;9146;48.074;11.968;2023-12-07T14:01:32;6.90;;;6.03;;
18042;SDS011;9146;48.074;11.968;2023-12-07T14:04:00;14.73;;;8.07;;
18042;SDS011;9146;48.074;11.968;2023-12-07T14:06:28;6.87;;;6.23;;
18042;SDS011;9146;48.074;11.968;2023-12-07T14:08:55;9.60;;;6.60;;
18042;SDS011;9146;48.074;11.968;2023-12-07T14:11:24;6.50;;;5.77;;
18042;SDS011;9146;48.074;11.968;2023-12-07T14:13:51;7.70;;;6.40;;
18042;SDS011;9146;48.074;11.968;2023-12-07T14:16:19;7.47;;;6.40;;
18042;SDS011;9146;48.074;11.968;2023-12-07T14:18:47;7.70;;;6.20;;
18042;SDS011;9146;48.074;11.968;2023-12-07T14:21:18;6.90;;;5.67;;
18042;SDS011;9146;48.074;11.968;2023-12-07T14:23:45;7.23;;;6.30;;
18042;SDS011;9146;48.074;11.968;2023-12-07T14:26:12;7.27;;;6.03;;
18042;SDS011;9146;48.074;11.968;2023-12-07T14:28:42;7.73;;;6.20;;
18042;SDS011;9146;48.074;11.968;2023-12-07T14:31:09;8.63;;;7.30;;
18042;SDS011;9146;48.074;11.968;2023-12-07T14:33:41;7.40;;;6.33;;
18042;SDS011;9146;48.074;11.968;2023-12-07T14:36:09;9.70;;;7.77;;
18042;SDS011;9146;48.074;11.968;2023-12-07T14:38:37;8.20;;;6.70;;
18042;SDS011;9146;48.074;11.968;2023-12-07T14:41:05;11.47;;;7.77;;
18042;SDS011;9146;48.074;11.968;2023-12-07T14:43:32;11.20;;;8.13;;